Time;durP1;ratioP1;P1;durP2;ratioP2;P2;SDS_P1;SDS_P2;PMS_P1;PMS_P2;Temp;Humidity;BMP_temperature;BMP_pressure;BME280_temperature;BME280_humidity;BME280_pressure;Samples;Min_cycle;Max_cycle;Signal;HPM_P1;HPM_P2
2021/06/02 00:02:06;;;;;;;3.87;3.47;;;14.20;72.70;;;;;;6248551;28;20487;-62
2021/06/02 00:05:10;;;;;;;4.00;3.60;;;14.10;72.80;;;;;;6248664;28;20458;-62
2021/06/02 00:08:16;;;;;;;3.97;3.57;;;14.10;73.10;;;;;;6251246;28;20447;-63
2021/06/02 00:11:20;;;;;;;3.87;3.47;;;14.00;73.10;;;;;;6253430;28;20470;-59
2021/06/02 00:14:24;;;;;;;3.47;3.27;;;13.90;73.30;;;;;;6253061;28;20975;-60
2021/06/02 00:17:27;;;;;;;7.57;4.23;;;13.90;73.60;;;;;;6253652;28;20470;-59
2021/06/02 00:20:30;;;;;;;3.67;3.37;;;14.00;73.70;;;;;;6253306;28;20474;-61
2021/06/02 00:23:34;;;;;;;3.90;3.60;;;13.90;73.90;;;;;;6252802;28;20767;-62
2021/06/02 00:26:38;;;;;;;3.80;3.50;;;13.90;74.30;;;;;;6252746;28;20478;-61
2021/06/02 00:29:44;;;;;;;4.23;3.83;;;13.90;74.40;;;;;;6253023;28;20470;-60
2021/06/02 00:32:47;;;;;;;4.97;3.93;;;13.80;74.50;;;;;;6252777;28;20459;-61
2021/06/02 00:35:51;;;;;;;3.90;3.60;;;13.80;74.70;;;;;;6252866;28;20943;-61
2021/06/02 00:38:55;;;;;;;4.10;3.80;;;13.80;74.50;;;;;;6252702;28;20470;-61
2021/06/02 00:41:59;;;;;;;4.73;4.33;;;13.80;74.70;;;;;;6253000;28;20486;-60
2021/06/02 00:45:01;;;;;;;4.50;3.93;;;13.80;74.50;;;;;;6252881;28;20475;-62
2021/06/02 00:48:05;;;;;;;4.00;3.60;;;13.80;74.40;;;;;;6252661;28;20836;-63
2021/06/02 00:51:09;;;;;;;4.33;3.93;;;13.80;74.80;;;;;;6252275;28;20471;-62
2021/06/02 00:54:15;;;;;;;4.50;4.10;;;13.80;75.00;;;;;;6251883;28;20482;-62
2021/06/02 00:57:20;;;;;;;3.83;3.53;;;13.80;75.20;;;;;;6252347;28;20483;-62
2021/06/02 01:00:24;;;;;;;3.60;3.30;;;13.80;75.00;;;;;;6252065;28;20467;-58
2021/06/02 01:03:29;;;;;;;5.97;3.40;;;13.80;75.20;;;;;;6252351;28;20471;-59
2021/06/02 01:06:34;;;;;;;3.90;3.43;;;13.70;75.30;;;;;;6251945;28;20828;-63
2021/06/02 01:09:44;;;;;;;3.90;3.50;;;13.70;75.40;;;;;;6252177;28;20804;-63
2021/06/02 01:12:51;;;;;;;4.03;3.67;;;13.60;75.60;;;;;;6252292;28;20472;-61
2021/06/02 01:15:54;;;;;;;3.70;3.40;;;13.60;75.80;;;;;;6251963;28;20964;-61
2021/06/02 01:18:58;;;;;;;4.10;3.70;;;13.60;75.90;;;;;;6250952;28;20481;-62
2021/06/02 01:22:02;;;;;;;4.60;3.60;;;13.60;76.10;;;;;;6251659;28;20486;-62
2021/06/02 01:25:07;;;;;;;4.80;3.20;;;13.60;76.20;;;;;;6251590;28;21062;-63
2021/06/02 01:28:10;;;;;;;4.70;3.13;;;13.60;76.30;;;;;;6251710;28;20505;-62
2021/06/02 01:31:23;;;;;;;3.97;3.67;;;13.50;76.20;;;;;;6251545;28;20467;-62
2021/06/02 01:34:43;;;;;;;4.50;3.50;;;13.50;76.60;;;;;;6251691;28;20475;-62
2021/06/02 01:38:27;;;;;;;3.83;3.53;;;13.40;77.00;;;;;;6251276;28;20479;-61
2021/06/02 01:41:33;;;;;;;4.67;2.97;;;13.30;77.60;;;;;;6230944;28;20455;-61
2021/06/02 01:45:09;;;;;;;4.30;3.90;;;13.30;77.80;;;;;;6242289;28;20482;-62
2021/06/02 01:48:32;;;;;;;5.50;4.07;;;13.30;78.00;;;;;;6251042;28;20475;-61
2021/06/02 01:51:58;;;;;;;5.47;3.80;;;13.20;77.90;;;;;;6251045;28;20801;-62
2021/06/02 01:55:39;;;;;;;7.83;5.63;;;13.20;78.70;;;;;;6251133;28;20498;-61
2021/06/02 01:59:10;;;;;;;8.50;6.20;;;13.10;79.20;;;;;;6201669;28;20551;-63
2021/06/02 02:02:55;;;;;;;9.70;5.33;;;13.10;79.80;;;;;;6250951;28;20471;-63
2021/06/02 02:06:25;;;;;;;5.50;5.00;;;13.10;80.20;;;;;;6250636;28;20470;-62
2021/06/02 02:09:39;;;;;;;4.50;4.10;;;13.00;80.40;;;;;;6250630;28;20467;-63
2021/06/02 02:12:59;;;;;;;3.40;3.20;;;12.90;80.70;;;;;;6250931;28;20498;-62
2021/06/02 02:16:19;;;;;;;3.90;3.33;;;12.90;81.00;;;;;;6250449;28;20516;-62
2021/06/02 02:19:49;;;;;;;4.43;3.60;;;12.80;80.90;;;;;;6250521;28;20482;-63
2021/06/02 02:23:03;;;;;;;6.67;3.70;;;12.80;80.90;;;;;;6250743;28;20824;-59
2021/06/02 02:26:24;;;;;;;4.33;3.90;;;12.80;81.30;;;;;;6249794;28;20979;-62
2021/06/02 02:29:42;;;;;;;3.83;3.53;;;12.80;81.50;;;;;;6250803;28;20463;-63
2021/06/02 02:33:06;;;;;;;3.33;3.13;;;12.80;81.80;;;;;;6250750;28;20475;-62
2021/06/02 02:36:15;;;;;;;4.77;4.37;;;12.70;81.90;;;;;;6249921;28;20479;-63
2021/06/02 02:39:25;;;;;;;6.13;4.00;;;12.70;82.10;;;;;;6250651;28;20475;-62
2021/06/02 02:42:38;;;;;;;4.10;3.70;;;12.70;82.20;;;;;;6249726;28;20562;-63
2021/06/02 02:45:57;;;;;;;4.57;4.17;;;12.70;82.40;;;;;;6250139;28;20485;-62
2021/06/02 02:49:13;;;;;;;6.63;3.60;;;12.60;83.00;;;;;;6241078;28;20560;-62
2021/06/02 02:52:27;;;;;;;3.63;3.30;;;12.60;83.60;;;;;;6249884;28;20467;-62
2021/06/02 02:55:32;;;;;;;3.53;3.33;;;12.40;84.10;;;;;;6249825;28;20478;-62
2021/06/02 02:58:44;;;;;;;4.27;3.40;;;12.40;84.40;;;;;;6249856;28;20479;-61
2021/06/02 03:01:57;;;;;;;4.53;4.03;;;12.40;84.80;;;;;;6249718;28;20474;-62
2021/06/02 03:05:01;;;;;;;4.63;3.97;;;12.40;84.90;;;;;;6249542;28;20864;-61
2021/06/02 03:08:13;;;;;;;6.50;3.70;;;12.30;85.00;;;;;;6249504;28;20820;-62
2021/06/02 03:11:24;;;;;;;5.10;4.10;;;12.30;85.40;;;;;;6250188;28;20452;-62
2021/06/02 03:14:45;;;;;;;5.03;4.20;;;12.30;85.80;;;;;;6249718;28;20972;-61
2021/06/02 03:17:58;;;;;;;4.20;3.80;;;12.20;86.00;;;;;;6249309;28;20817;-62
2021/06/02 03:21:14;;;;;;;4.83;4.43;;;12.20;86.30;;;;;;6249617;28;20908;-59
2021/06/02 03:24:29;;;;;;;5.67;4.00;;;12.20;86.60;;;;;;6249484;28;20467;-59
2021/06/02 03:27:36;;;;;;;5.00;4.23;;;12.30;86.70;;;;;;6249707;28;20533;-59
2021/06/02 03:30:44;;;;;;;3.97;3.67;;;12.30;86.70;;;;;;6249382;28;20463;-60
2021/06/02 03:34:19;;;;;;;5.70;4.80;;;12.30;86.70;;;;;;6249483;28;20490;-59
2021/06/02 03:37:34;;;;;;;3.73;3.43;;;12.30;86.60;;;;;;6214436;28;20475;-60
2021/06/02 03:40:47;;;;;;;14.83;4.80;;;12.30;87.10;;;;;;6249233;28;20482;-61
2021/06/02 03:43:56;;;;;;;4.10;3.80;;;12.20;86.80;;;;;;6252657;28;20487;-61
2021/06/02 03:47:19;;;;;;;5.20;4.33;;;12.30;87.10;;;;;;6253815;28;20482;-61
2021/06/02 03:50:28;;;;;;;4.03;3.63;;;12.30;87.00;;;;;;6249483;28;20789;-60
2021/06/02 03:53:45;;;;;;;4.80;4.40;;;12.30;87.20;;;;;;6253947;28;20468;-59
2021/06/02 03:57:13;;;;;;;4.40;4.10;;;12.30;86.70;;;;;;6253991;28;20463;-60
2021/06/02 04:00:18;;;;;;;4.07;3.70;;;12.30;87.00;;;;;;6251342;28;20467;-59
2021/06/02 04:03:22;;;;;;;5.23;4.00;;;12.30;87.20;;;;;;6253530;28;20471;-59
2021/06/02 04:06:37;;;;;;;4.63;3.63;;;12.30;87.30;;;;;;6253337;28;20984;-59
2021/06/02 04:09:43;;;;;;;4.30;3.90;;;12.40;87.40;;;;;;6253847;28;20474;-59
2021/06/02 04:12:50;;;;;;;4.33;3.90;;;12.50;86.90;;;;;;6253492;28;20980;-59
2021/06/02 04:16:01;;;;;;;4.53;4.17;;;12.60;86.70;;;;;;6253425;28;20478;-60
2021/06/02 04:19:06;;;;;;;5.57;4.17;;;12.70;86.20;;;;;;6253247;28;20811;-59
2021/06/02 04:22:10;;;;;;;4.37;3.77;;;12.80;85.80;;;;;;6253299;28;20490;-59
2021/06/02 04:25:15;;;;;;;6.27;4.63;;;12.90;85.70;;;;;;6252777;28;20968;-59
2021/06/02 04:28:19;;;;;;;9.00;4.40;;;13.00;85.50;;;;;;6253410;28;20481;-60
2021/06/02 04:31:24;;;;;;;5.90;4.60;;;13.10;85.20;;;;;;6252785;28;20462;-59
2021/06/02 04:34:28;;;;;;;7.03;5.03;;;13.20;84.60;;;;;;6253025;28;20475;-58
2021/06/02 04:37:35;;;;;;;4.10;3.80;;;13.40;84.30;;;;;;6252670;28;20490;-59
2021/06/02 04:40:40;;;;;;;4.77;4.37;;;13.50;84.00;;;;;;6253181;28;20474;-60
2021/06/02 04:43:44;;;;;;;4.80;4.10;;;13.60;83.60;;;;;;6252312;28;20483;-60
2021/06/02 04:46:47;;;;;;;5.93;4.00;;;13.70;83.40;;;;;;6252599;28;20479;-60
2021/06/02 04:50:00;;;;;;;6.03;4.70;;;13.90;82.90;;;;;;6252346;28;20830;-60
2021/06/02 04:53:31;;;;;;;5.10;4.60;;;14.00;82.10;;;;;;6252828;28;20808;-60
2021/06/02 04:57:15;;;;;;;4.93;3.83;;;14.10;81.30;;;;;;6251590;28;20466;-60
2021/06/02 05:00:53;;;;;;;6.17;4.57;;;14.30;80.70;;;;;;6236363;28;20479;-62
2021/06/02 05:04:31;;;;;;;3.80;3.50;;;14.40;80.50;;;;;;6252126;28;20471;-62
2021/06/02 05:08:07;;;;;;;7.10;4.60;;;14.60;80.30;;;;;;6252583;28;20791;-63
2021/06/02 05:11:54;;;;;;;7.20;5.60;;;14.80;79.60;;;;;;6251852;28;20471;-61
2021/06/02 05:15:51;;;;;;;4.70;4.20;;;14.90;79.70;;;;;;6251188;28;20524;-62
2021/06/02 05:19:45;;;;;;;6.40;4.90;;;15.10;79.20;;;;;;6228781;28;20463;-62
2021/06/02 05:23:47;;;;;;;6.33;4.33;;;15.20;79.40;;;;;;6252141;28;20506;-62
2021/06/02 05:27:33;;;;;;;5.33;4.80;;;15.40;78.70;;;;;;6251814;28;20759;-62
2021/06/02 05:31:01;;;;;;;4.80;4.30;;;15.60;77.80;;;;;;6251672;28;20968;-64
2021/06/02 05:34:47;;;;;;;5.87;4.47;;;15.60;76.30;;;;;;6251379;28;20975;-62
2021/06/02 05:38:29;;;;;;;6.17;4.50;;;15.80;76.50;;;;;;6251154;28;21000;-60
2021/06/02 05:41:53;;;;;;;5.20;4.33;;;16.10;75.20;;;;;;6230196;28;20789;-60
2021/06/02 05:45:23;;;;;;;8.03;4.00;;;16.20;75.20;;;;;;6251485;28;20482;-60
2021/06/02 05:49:23;;;;;;;4.30;4.00;;;16.50;73.20;;;;;;6251152;28;20471;-60
2021/06/02 05:53:03;;;;;;;5.87;3.87;;;16.50;70.20;;;;;;6250958;28;20969;-60
2021/06/02 05:56:38;;;;;;;4.37;4.00;;;16.70;71.10;;;;;;6226209;28;20486;-60
2021/06/02 06:00:17;;;;;;;6.83;4.07;;;16.80;69.00;;;;;;6251185;28;20471;-61
2021/06/02 06:04:03;;;;;;;4.23;3.90;;;17.20;66.00;;;;;;6250668;28;20490;-60
2021/06/02 06:07:16;;;;;;;4.60;4.00;;;17.70;65.10;;;;;;6250446;28;20612;-60
2021/06/02 06:10:46;;;;;;;4.33;3.93;;;18.30;62.80;;;;;;6250813;28;20467;-60
2021/06/02 06:14:27;;;;;;;6.47;4.37;;;18.80;62.20;;;;;;6250352;28;20478;-61
2021/06/02 06:17:51;;;;;;;7.07;5.17;;;19.60;60.20;;;;;;6250521;28;20466;-61
2021/06/02 06:21:29;;;;;;;6.03;4.37;;;20.40;58.10;;;;;;6250409;28;20717;-62
2021/06/02 06:24:39;;;;;;;6.93;4.70;;;21.20;56.40;;;;;;6250422;28;20239;-60
2021/06/02 06:27:46;;;;;;;4.83;4.40;;;21.60;54.50;;;;;;6250319;28;20239;-60
2021/06/02 06:30:50;;;;;;;6.17;4.97;;;22.10;53.90;;;;;;6250196;28;20689;-62
2021/06/02 06:33:58;;;;;;;5.90;4.87;;;22.20;52.40;;;;;;6250200;28;20232;-62
2021/06/02 06:37:04;;;;;;;5.07;4.50;;;22.50;51.80;;;;;;6249856;28;20698;-62
2021/06/02 06:40:08;;;;;;;5.40;4.30;;;23.10;51.10;;;;;;6250129;28;20231;-64
2021/06/02 06:43:13;;;;;;;4.67;4.20;;;23.70;50.20;;;;;;6249886;28;20228;-62
2021/06/02 06:46:18;;;;;;;5.80;4.93;;;23.70;49.40;;;;;;6250142;28;20243;-62
2021/06/02 06:49:22;;;;;;;6.80;3.90;;;24.10;49.80;;;;;;6249744;28;20720;-61
2021/06/02 06:52:27;;;;;;;5.93;4.00;;;24.60;47.50;;;;;;6249874;28;20232;-63
2021/06/02 06:55:31;;;;;;;6.80;4.53;;;24.90;46.90;;;;;;6249409;28;20235;-62
2021/06/02 06:58:35;;;;;;;7.50;5.70;;;25.50;45.70;;;;;;6249668;28;20250;-61
2021/06/02 07:01:38;;;;;;;7.03;5.43;;;26.00;44.50;;;;;;6240210;28;20757;-62
2021/06/02 07:04:43;;;;;;;6.73;4.40;;;26.40;44.50;;;;;;6249493;28;20278;-62
2021/06/02 07:07:49;;;;;;;7.83;4.23;;;26.60;43.70;;;;;;6249045;28;20591;-62
2021/06/02 07:10:51;;;;;;;6.97;4.47;;;27.50;42.70;;;;;;6249892;28;20235;-63
2021/06/02 07:13:54;;;;;;;4.03;3.73;;;28.00;40.20;;;;;;6249433;28;20227;-60
2021/06/02 07:17:03;;;;;;;5.07;4.67;;;28.40;38.60;;;;;;6248669;28;20238;-63
2021/06/02 07:20:10;;;;;;;4.47;4.07;;;29.10;37.00;;;;;;6249487;28;20227;-62
2021/06/02 07:23:14;;;;;;;7.00;3.83;;;29.70;35.00;;;;;;6249550;28;20223;-62
2021/06/02 07:26:18;;;;;;;8.17;4.40;;;30.40;34.60;;;;;;6249482;28;20234;-63
2021/06/02 07:29:42;;;;;;;5.83;4.83;;;30.80;33.90;;;;;;6249376;28;20246;-62
2021/06/02 07:32:45;;;;;;;4.63;4.17;;;31.30;33.00;;;;;;6249424;28;20219;-60
2021/06/02 07:35:48;;;;;;;6.00;4.55;;;31.60;32.30;;;;;;6249004;28;20330;-60
2021/06/02 07:38:52;;;;;;;5.03;3.95;;;32.10;31.00;;;;;;6249173;28;20227;-61
2021/06/02 07:41:55;;;;;;;5.25;4.07;;;32.30;30.00;;;;;;6249425;28;20234;-61
2021/06/02 07:44:58;;;;;;;4.13;3.72;;;32.50;30.10;;;;;;6249153;28;20682;-60
2021/06/02 07:48:01;;;;;;;4.65;4.25;;;32.90;29.10;;;;;;6249030;28;20238;-62
2021/06/02 07:51:04;;;;;;;3.85;3.47;;;32.50;28.90;;;;;;6249242;28;20680;-62
2021/06/02 07:54:08;;;;;;;4.25;3.85;;;31.50;29.80;;;;;;6248839;28;20692;-65
2021/06/02 07:57:11;;;;;;;3.60;3.30;;;30.90;29.80;;;;;;6249121;28;20231;-62
2021/06/02 08:00:15;;;;;;;5.00;2.90;;;30.00;30.60;;;;;;6248883;28;20247;-61
2021/06/02 08:03:19;;;;;;;4.40;3.93;;;29.00;31.20;;;;;;6249749;28;20227;-64
2021/06/02 08:06:21;;;;;;;6.00;4.17;;;28.40;32.50;;;;;;6248686;28;20700;-63
2021/06/02 08:09:26;;;;;;;4.00;3.70;;;27.80;33.90;;;;;;6249243;28;20227;-64
2021/06/02 08:12:28;;;;;;;4.97;4.10;;;26.90;35.00;;;;;;6249650;28;20228;-64
2021/06/02 08:15:31;;;;;;;4.93;4.50;;;26.60;35.90;;;;;;6249317;28;20241;-64
2021/06/02 08:18:34;;;;;;;3.87;3.53;;;26.40;36.60;;;;;;6248944;28;20235;-59
2021/06/02 08:21:39;;;;;;;4.90;3.90;;;26.10;37.40;;;;;;6248537;28;20235;-60
2021/06/02 08:24:43;;;;;;;6.97;4.97;;;25.80;37.20;;;;;;6248906;28;20236;-59
2021/06/02 08:27:47;;;;;;;5.83;4.17;;;25.40;38.00;;;;;;6248920;28;20224;-63
2021/06/02 08:30:51;;;;;;;5.20;3.83;;;25.00;39.20;;;;;;6252999;28;20590;-63
2021/06/02 08:33:53;;;;;;;4.50;4.10;;;24.80;39.20;;;;;;6252863;28;20593;-63
2021/06/02 08:36:56;;;;;;;5.40;4.90;;;24.50;39.60;;;;;;6253227;28;20246;-62
2021/06/02 08:40:00;;;;;;;4.60;4.20;;;24.40;41.10;;;;;;6253149;28;20243;-63
2021/06/02 08:43:03;;;;;;;7.60;4.13;;;24.20;42.10;;;;;;6252872;28;20227;-63
2021/06/02 08:46:06;;;;;;;4.10;3.43;;;24.00;42.00;;;;;;6252587;28;20251;-63
2021/06/02 08:49:09;;;;;;;6.07;4.43;;;24.10;42.30;;;;;;6252815;28;20239;-63
2021/06/02 08:52:13;;;;;;;4.40;4.00;;;24.30;42.10;;;;;;6252320;28;20307;-63
2021/06/02 08:55:19;;;;;;;7.03;3.47;;;24.30;42.30;;;;;;6252592;28;20227;-63
2021/06/02 08:58:23;;;;;;;4.23;3.50;;;24.40;42.70;;;;;;6252681;28;20236;-63
2021/06/02 09:01:28;;;;;;;5.50;4.57;;;24.50;42.10;;;;;;6252439;28;20239;-63
2021/06/02 09:04:33;;;;;;;4.40;4.00;;;24.20;42.10;;;;;;6248004;28;20235;-63
2021/06/02 09:07:38;;;;;;;5.17;3.80;;;24.20;42.60;;;;;;6252053;28;20236;-62
2021/06/02 09:10:44;;;;;;;4.90;4.20;;;23.90;42.60;;;;;;6252126;28;20228;-63
2021/06/02 09:13:47;;;;;;;4.53;3.77;;;24.10;42.40;;;;;;6252270;28;20235;-64
2021/06/02 09:16:52;;;;;;;4.27;3.33;;;24.10;41.60;;;;;;6252137;28;20228;-63
2021/06/02 09:19:55;;;;;;;3.93;3.63;;;23.90;41.60;;;;;;6251750;28;20228;-63
2021/06/02 09:22:59;;;;;;;3.97;3.67;;;24.00;41.40;;;;;;6251648;28;20678;-63
2021/06/02 09:26:18;;;;;;;4.73;3.77;;;24.00;41.20;;;;;;6251438;28;20232;-63
2021/06/02 09:29:21;;;;;;;5.10;3.70;;;24.20;41.10;;;;;;6252198;28;20224;-63
2021/06/02 09:32:25;;;;;;;5.17;4.67;;;24.40;41.40;;;;;;6251615;28;20528;-63
2021/06/02 09:35:35;;;;;;;5.10;3.60;;;24.40;41.10;;;;;;6251343;28;20232;-62
2021/06/02 09:38:38;;;;;;;3.80;3.50;;;24.50;41.10;;;;;;6251539;28;20225;-64
2021/06/02 09:41:44;;;;;;;3.33;3.03;;;24.50;41.50;;;;;;6251045;28;20228;-63
2021/06/02 09:45:03;;;;;;;4.20;3.80;;;24.40;41.70;;;;;;6251331;28;20227;-63
2021/06/02 09:48:06;;;;;;;4.70;4.30;;;24.40;41.30;;;;;;6251692;28;20237;-63
2021/06/02 09:51:34;;;;;;;4.03;3.63;;;24.30;41.90;;;;;;6251334;28;20224;-63
2021/06/02 09:54:36;;;;;;;3.97;3.63;;;24.60;41.90;;;;;;6251456;28;20232;-63
2021/06/02 09:57:41;;;;;;;4.23;3.87;;;24.50;42.40;;;;;;6250812;28;20232;-64
2021/06/02 10:00:45;;;;;;;4.77;4.27;;;24.60;42.30;;;;;;6251143;28;20580;-63
2021/06/02 10:03:48;;;;;;;4.10;3.80;;;24.80;42.40;;;;;;6250830;28;20231;-63
2021/06/02 10:06:51;;;;;;;3.80;3.50;;;24.80;42.40;;;;;;6251076;28;20239;-63
2021/06/02 10:09:56;;;;;;;4.90;3.93;;;24.40;42.30;;;;;;6241949;28;20232;-63
2021/06/02 10:13:03;;;;;;;4.50;4.10;;;24.30;42.70;;;;;;6250812;28;20236;-63
2021/06/02 10:16:06;;;;;;;4.50;4.03;;;24.40;42.70;;;;;;6250324;28;20696;-64
2021/06/02 10:19:09;;;;;;;3.97;3.57;;;24.50;42.70;;;;;;6250462;28;20231;-63
2021/06/02 10:22:24;;;;;;;4.30;3.90;;;24.50;43.00;;;;;;6250856;28;20258;-62
2021/06/02 10:25:28;;;;;;;4.17;3.87;;;24.50;43.20;;;;;;6250428;28;20229;-64
2021/06/02 10:28:33;;;;;;;4.33;4.03;;;24.40;43.40;;;;;;6250091;28;20224;-63
2021/06/02 10:31:36;;;;;;;5.03;4.10;;;24.50;42.70;;;;;;6250341;28;20228;-63
2021/06/02 10:34:39;;;;;;;4.77;4.37;;;24.10;43.60;;;;;;6250070;28;20231;-64
2021/06/02 10:37:43;;;;;;;4.57;4.17;;;23.80;44.00;;;;;;6250147;28;20244;-65
2021/06/02 10:40:47;;;;;;;4.80;4.47;;;24.00;44.60;;;;;;6250251;28;20251;-64
2021/06/02 10:43:56;;;;;;;7.80;4.17;;;24.30;44.20;;;;;;6250250;28;20228;-63
2021/06/02 10:47:01;;;;;;;6.13;4.20;;;24.40;44.20;;;;;;6250045;28;20228;-64
2021/06/02 10:50:04;;;;;;;4.63;4.23;;;24.40;44.50;;;;;;6249645;28;20228;-63
2021/06/02 10:53:24;;;;;;;3.93;3.60;;;24.50;44.60;;;;;;6249078;28;20228;-62
2021/06/02 10:56:27;;;;;;;5.03;4.63;;;24.60;43.90;;;;;;6249604;28;20227;-63
2021/06/02 10:59:33;;;;;;;4.20;3.80;;;24.60;43.90;;;;;;6249573;28;20232;-62
2021/06/02 11:02:37;;;;;;;4.67;4.27;;;24.50;44.40;;;;;;6249773;28;20228;-62
2021/06/02 11:05:39;;;;;;;4.47;4.17;;;24.60;44.40;;;;;;6249342;28;20243;-62
2021/06/02 11:09:17;;;;;;;4.60;4.20;;;24.70;44.40;;;;;;6249158;28;20231;-63
2021/06/02 11:12:20;;;;;;;5.20;4.70;;;24.70;44.50;;;;;;6245340;28;20235;-62
2021/06/02 11:15:43;;;;;;;5.03;4.53;;;24.50;45.30;;;;;;6249700;28;20257;-62
2021/06/02 11:19:08;;;;;;;4.10;3.80;;;24.60;44.50;;;;;;6249458;28;20697;-62
2021/06/02 11:22:16;;;;;;;5.10;4.70;;;24.60;44.40;;;;;;6249420;28;21010;-62
2021/06/02 11:25:22;;;;;;;4.43;4.03;;;24.60;44.90;;;;;;6248940;28;20240;-62
2021/06/02 11:28:42;;;;;;;5.47;3.90;;;24.40;45.80;;;;;;6249760;28;20232;-62
2021/06/02 11:31:55;;;;;;;4.40;4.10;;;24.50;45.70;;;;;;6249354;28;20229;-62
2021/06/02 11:35:00;;;;;;;5.07;4.67;;;24.60;45.10;;;;;;6249200;28;20690;-62
2021/06/02 11:38:03;;;;;;;6.63;5.40;;;24.90;45.10;;;;;;6248934;28;20236;-62
2021/06/02 11:41:07;;;;;;;6.43;4.90;;;25.00;44.80;;;;;;6249089;28;20249;-62
2021/06/02 11:44:21;;;;;;;5.43;4.53;;;25.10;44.60;;;;;;6248844;28;20229;-62
2021/06/02 11:47:26;;;;;;;4.63;4.33;;;25.10;44.60;;;;;;6249168;28;20208;-63
2021/06/02 11:50:28;;;;;;;4.90;4.27;;;24.90;45.00;;;;;;6249084;28;20242;-62
2021/06/02 11:53:42;;;;;;;4.57;4.17;;;25.30;45.20;;;;;;6249303;28;20224;-62
2021/06/02 11:56:45;;;;;;;5.27;4.87;;;25.80;44.10;;;;;;6249020;28;20233;-63
2021/06/02 11:59:48;;;;;;;4.40;4.10;;;26.20;43.40;;;;;;6248853;28;20695;-60
2021/06/02 12:02:54;;;;;;;5.50;5.10;;;26.20;42.90;;;;;;6249221;28;20339;-60
2021/06/02 12:05:58;;;;;;;7.50;4.77;;;26.30;42.50;;;;;;6253460;28;20232;-60
2021/06/02 12:09:11;;;;;;;4.70;4.27;;;26.50;42.50;;;;;;6253601;28;20230;-61
2021/06/02 12:12:15;;;;;;;4.90;4.40;;;26.30;42.30;;;;;;6253811;28;20238;-63
2021/06/02 12:15:19;;;;;;;5.40;4.70;;;26.20;42.70;;;;;;6248189;28;20324;-63
2021/06/02 12:18:37;;;;;;;4.93;4.43;;;26.10;43.20;;;;;;6253164;28;20238;-62
2021/06/02 12:21:41;;;;;;;6.50;4.63;;;25.80;43.70;;;;;;6252817;28;20246;-62
2021/06/02 12:24:44;;;;;;;5.20;4.40;;;25.40;44.30;;;;;;6253181;28;20236;-63
2021/06/02 12:27:48;;;;;;;7.47;4.87;;;25.50;44.40;;;;;;6252753;28;20242;-62
2021/06/02 12:30:51;;;;;;;5.17;4.80;;;25.80;44.50;;;;;;6253150;28;20293;-62
2021/06/02 12:34:01;;;;;;;6.87;5.43;;;26.10;43.60;;;;;;6252918;28;20227;-62
2021/06/02 12:37:07;;;;;;;4.80;4.30;;;26.00;43.00;;;;;;6253310;28;20236;-62
2021/06/02 12:40:12;;;;;;;5.20;4.80;;;25.50;43.90;;;;;;6253015;28;20232;-63
2021/06/02 12:43:17;;;;;;;5.20;4.73;;;25.20;44.70;;;;;;6253345;28;20232;-63
2021/06/02 12:46:20;;;;;;;6.90;4.60;;;24.90;45.40;;;;;;6252529;28;20371;-63
2021/06/02 12:49:24;;;;;;;4.90;4.50;;;24.80;45.60;;;;;;6252520;28;20231;-62
2021/06/02 12:52:26;;;;;;;5.50;3.90;;;24.60;45.50;;;;;;6252783;28;20239;-60
2021/06/02 12:55:31;;;;;;;5.37;4.87;;;24.60;46.30;;;;;;6252374;28;20567;-60
2021/06/02 12:58:35;;;;;;;4.77;4.33;;;24.50;45.90;;;;;;6252575;28;20248;-60
2021/06/02 13:01:38;;;;;;;4.90;4.50;;;24.70;45.40;;;;;;6252417;28;20586;-59
2021/06/02 13:04:42;;;;;;;5.60;4.90;;;24.60;46.10;;;;;;6252189;28;20228;-60
2021/06/02 13:07:45;;;;;;;4.60;4.30;;;24.80;45.80;;;;;;6251935;28;20708;-60
2021/06/02 13:11:06;;;;;;;7.77;5.07;;;24.90;45.60;;;;;;6252378;28;20228;-61
2021/06/02 13:14:09;;;;;;;5.00;4.50;;;24.90;45.80;;;;;;6251397;28;20705;-60
2021/06/02 13:17:11;;;;;;;5.43;4.03;;;25.00;45.50;;;;;;6251366;28;20214;-61
2021/06/02 13:20:29;;;;;;;4.87;4.47;;;25.20;45.20;;;;;;6238236;28;20212;-61
2021/06/02 13:23:32;;;;;;;4.50;4.20;;;25.30;44.90;;;;;;6251733;28;20530;-61
2021/06/02 13:26:35;;;;;;;6.50;4.40;;;25.50;44.20;;;;;;6251389;28;20673;-61
2021/06/02 13:29:38;;;;;;;5.20;4.37;;;25.40;44.80;;;;;;6251715;28;20674;-58
2021/06/02 13:32:55;;;;;;;4.77;4.47;;;25.10;44.70;;;;;;6251918;28;20224;-59
2021/06/02 13:36:04;;;;;;;5.50;5.00;;;24.70;45.80;;;;;;6251819;28;20258;-59
2021/06/02 13:39:12;;;;;;;5.03;4.60;;;24.30;46.10;;;;;;6251252;28;20235;-60
2021/06/02 13:42:15;;;;;;;4.50;4.20;;;24.60;46.30;;;;;;6251762;28;20236;-59
2021/06/02 13:45:18;;;;;;;5.57;5.17;;;24.80;45.90;;;;;;6251017;28;20708;-59
2021/06/02 13:48:36;;;;;;;5.47;4.97;;;24.70;45.50;;;;;;6251344;28;20670;-59
2021/06/02 13:51:45;;;;;;;4.63;4.33;;;24.70;45.70;;;;;;6250896;28;20225;-60
2021/06/02 13:54:56;;;;;;;6.30;4.73;;;25.00;45.70;;;;;;6251018;28;20224;-59
2021/06/02 13:57:59;;;;;;;5.67;4.23;;;25.00;45.70;;;;;;6250684;28;20590;-60
2021/06/02 14:01:01;;;;;;;7.50;4.70;;;25.10;45.20;;;;;;6251280;28;20239;-60
2021/06/02 14:04:05;;;;;;;5.40;5.00;;;25.30;45.00;;;;;;6250762;28;20240;-60
2021/06/02 14:07:10;;;;;;;4.33;4.03;;;25.60;44.40;;;;;;6250860;28;20232;-59
2021/06/02 14:10:14;;;;;;;5.07;4.63;;;25.80;44.40;;;;;;6250771;28;20243;-61
2021/06/02 14:13:16;;;;;;;5.40;4.90;;;25.80;44.30;;;;;;6251048;28;20685;-59
2021/06/02 14:16:20;;;;;;;4.73;4.33;;;25.80;44.80;;;;;;6250457;28;20234;-60
2021/06/02 14:19:23;;;;;;;4.77;4.37;;;26.00;44.40;;;;;;6250647;28;20266;-59
2021/06/02 14:22:27;;;;;;;4.70;4.30;;;26.20;45.00;;;;;;6250660;28;20224;-60
2021/06/02 14:25:30;;;;;;;5.07;4.67;;;26.20;44.30;;;;;;6250446;28;20239;-59
2021/06/02 14:28:33;;;;;;;5.43;5.03;;;26.30;43.70;;;;;;6250234;28;20224;-60
2021/06/02 14:31:40;;;;;;;6.10;4.63;;;26.50;43.50;;;;;;6250322;28;20227;-60
2021/06/02 14:34:43;;;;;;;5.30;4.90;;;26.30;43.80;;;;;;6250229;28;20227;-60
2021/06/02 14:37:47;;;;;;;5.67;5.17;;;26.10;44.10;;;;;;6250079;28;20231;-60
2021/06/02 14:40:50;;;;;;;6.30;5.60;;;25.70;44.70;;;;;;6250514;28;20231;-60
2021/06/02 14:43:53;;;;;;;5.53;5.03;;;25.40;45.00;;;;;;6249976;28;20239;-60
2021/06/02 14:46:56;;;;;;;6.43;4.60;;;25.40;45.20;;;;;;6250013;28;20247;-60
2021/06/02 14:49:59;;;;;;;5.20;4.80;;;25.40;45.80;;;;;;6249712;28;20235;-60
2021/06/02 14:53:03;;;;;;;6.07;5.10;;;25.50;45.50;;;;;;6249908;28;20720;-60
2021/06/02 14:56:06;;;;;;;6.40;5.00;;;25.50;44.90;;;;;;6249206;28;20258;-59
2021/06/02 14:59:09;;;;;;;5.67;5.10;;;25.10;46.00;;;;;;6249740;28;20704;-61
2021/06/02 15:02:11;;;;;;;5.20;4.80;;;25.10;46.10;;;;;;6249663;28;20235;-60
2021/06/02 15:05:16;;;;;;;5.23;4.83;;;25.20;45.90;;;;;;6249468;28;20239;-60
2021/06/02 15:08:20;;;;;;;5.60;5.10;;;25.10;45.80;;;;;;6249834;28;20200;-61
2021/06/02 15:11:23;;;;;;;5.23;4.73;;;25.00;46.30;;;;;;6249197;28;20275;-60
2021/06/02 15:14:26;;;;;;;5.27;4.87;;;25.00;46.50;;;;;;6249739;28;20307;-60
2021/06/02 15:17:29;;;;;;;6.00;5.40;;;25.10;46.60;;;;;;6249156;28;20239;-60
2021/06/02 15:20:32;;;;;;;5.20;4.67;;;24.90;46.70;;;;;;6249348;28;20558;-60
2021/06/02 15:23:36;;;;;;;6.40;5.33;;;24.70;46.90;;;;;;6244659;28;20677;-61
2021/06/02 15:26:40;;;;;;;5.70;5.10;;;24.70;47.50;;;;;;6249406;28;20231;-60
2021/06/02 15:29:44;;;;;;;5.10;4.80;;;24.70;47.90;;;;;;6249235;28;20228;-60
2021/06/02 15:32:48;;;;;;;6.07;4.57;;;24.60;48.20;;;;;;6249300;28;20685;-60
2021/06/02 15:35:56;;;;;;;5.60;5.10;;;24.60;48.20;;;;;;6248964;28;20231;-60
2021/06/02 15:39:00;;;;;;;5.80;5.17;;;24.50;48.10;;;;;;6251481;28;20228;-59
2021/06/02 15:42:04;;;;;;;5.37;4.97;;;24.30;48.80;;;;;;6254706;28;20235;-60
2021/06/02 15:45:18;;;;;;;8.50;5.10;;;24.20;49.20;;;;;;6254346;28;20868;-59
2021/06/02 15:48:22;;;;;;;4.93;4.53;;;24.20;49.40;;;;;;6254013;28;20228;-60
2021/06/02 15:51:26;;;;;;;5.33;4.93;;;24.20;49.30;;;;;;6253877;28;20242;-60
2021/06/02 15:54:31;;;;;;;7.63;5.00;;;24.10;49.50;;;;;;6254146;28;20704;-60
2021/06/02 15:57:36;;;;;;;5.50;4.13;;;24.00;49.90;;;;;;6254295;28;20243;-61
2021/06/02 16:00:40;;;;;;;4.87;4.47;;;23.70;50.30;;;;;;6253797;28;20240;-60
2021/06/02 16:03:43;;;;;;;5.63;5.13;;;23.50;51.20;;;;;;6253471;28;20228;-60
2021/06/02 16:06:46;;;;;;;7.40;5.10;;;23.20;51.40;;;;;;6253549;28;20240;-60
2021/06/02 16:09:50;;;;;;;5.10;4.73;;;23.20;52.10;;;;;;6253511;28;20587;-65
2021/06/02 16:12:57;;;;;;;5.33;4.77;;;23.30;51.80;;;;;;6253708;28;20228;-60
2021/06/02 16:16:00;;;;;;;5.53;5.03;;;23.40;51.70;;;;;;6253590;28;20243;-61
2021/06/02 16:19:03;;;;;;;5.47;4.97;;;23.40;51.60;;;;;;6253703;28;20232;-60
2021/06/02 16:22:06;;;;;;;6.83;4.60;;;23.40;51.60;;;;;;6253229;28;20232;-60
2021/06/02 16:25:11;;;;;;;5.50;5.10;;;23.50;51.50;;;;;;6253342;28;20309;-60
2021/06/02 16:28:18;;;;;;;5.20;4.80;;;23.60;51.60;;;;;;6253038;28;20228;-61
2021/06/02 16:31:25;;;;;;;6.23;5.20;;;23.70;51.30;;;;;;6253203;28;20716;-60